createdAt,value
2023-05-10T00:01:51.241Z,89.90
2023-05-10T00:04:18.407Z,89.90
2023-05-10T00:06:45.455Z,89.90
2023-05-10T00:09:12.509Z,89.90
2023-05-10T00:11:39.492Z,89.90
2023-05-10T00:14:06.527Z,89.80
2023-05-10T00:16:33.693Z,89.80
2023-05-10T00:19:00.713Z,89.80
2023-05-10T00:21:29.506Z,89.80
2023-05-10T00:23:59.606Z,89.80
2023-05-10T00:26:26.544Z,89.80
2023-05-10T00:28:53.537Z,89.80
2023-05-10T00:31:20.629Z,89.80
2023-05-10T00:33:47.630Z,89.80
2023-05-10T00:36:14.530Z,89.80
2023-05-10T00:38:41.672Z,89.80
2023-05-10T00:41:11.528Z,89.70
2023-05-10T00:43:38.581Z,89.70
2023-05-10T00:46:08.019Z,89.70
2023-05-10T00:48:35.093Z,89.70
2023-05-10T00:51:02.660Z,89.70
2023-05-10T00:53:32.460Z,89.70
2023-05-10T00:56:00.628Z,89.70
2023-05-10T00:58:32.008Z,89.70
2023-05-10T01:00:59.227Z,89.70
2023-05-10T01:03:26.998Z,89.70
2023-05-10T01:05:53.946Z,89.70
2023-05-10T01:08:21.495Z,89.70
2023-05-10T01:10:50.422Z,89.60
2023-05-10T01:13:45.457Z,89.60
2023-05-10T01:16:12.946Z,89.60
2023-05-10T01:18:40.611Z,89.60
2023-05-10T01:21:24.997Z,89.60
2023-05-10T01:24:10.580Z,89.60
2023-05-10T01:27:11.603Z,89.60
2023-05-10T01:30:21.745Z,89.60
2023-05-10T01:33:01.585Z,89.50
2023-05-10T01:35:50.779Z,89.50
2023-05-10T01:38:19.092Z,89.40
2023-05-10T01:41:00.866Z,89.40
2023-05-10T01:43:29.527Z,89.40
2023-05-10T01:46:11.717Z,89.40
2023-05-10T01:48:47.372Z,89.40
2023-05-10T01:51:18.637Z,89.50
2023-05-10T01:53:46.376Z,89.40
2023-05-10T01:56:13.321Z,89.40
2023-05-10T01:58:41.345Z,89.40
2023-05-10T02:01:08.539Z,89.40
2023-05-10T02:03:35.531Z,89.40
2023-05-10T02:06:02.654Z,89.30
2023-05-10T02:08:29.693Z,89.40
2023-05-10T02:10:57.490Z,89.50
2023-05-10T02:13:25.908Z,89.60
2023-05-10T02:15:53.008Z,89.60
2023-05-10T02:18:20.038Z,89.60
2023-05-10T02:20:47.237Z,89.70
2023-05-10T02:23:15.958Z,89.70
2023-05-10T02:25:43.647Z,89.80
2023-05-10T02:28:10.717Z,89.80
2023-05-10T02:30:37.719Z,89.80
2023-05-10T02:33:05.857Z,89.90
2023-05-10T02:35:34.414Z,89.80
2023-05-10T02:38:01.653Z,89.80
2023-05-10T02:40:28.921Z,89.90
2023-05-10T02:42:58.620Z,89.90
2023-05-10T02:45:27.583Z,89.80
2023-05-10T02:47:54.777Z,89.90
2023-05-10T02:50:21.729Z,89.90
2023-05-10T02:52:51.048Z,89.90
2023-05-10T02:55:18.017Z,89.90
2023-05-10T02:57:49.870Z,90.00
2023-05-10T03:00:17.350Z,90.00
2023-05-10T03:02:44.644Z,90.00
2023-05-10T03:05:11.630Z,90.00
2023-05-10T03:07:41.381Z,90.00
2023-05-10T03:10:08.852Z,90.00
2023-05-10T03:12:57.796Z,90.00
2023-05-10T03:15:49.916Z,90.00
2023-05-10T03:18:19.943Z,90.00
2023-05-10T03:21:07.441Z,90.00
2023-05-10T03:23:42.280Z,90.00
2023-05-10T03:26:09.195Z,90.00
2023-05-10T03:28:36.520Z,90.00
2023-05-10T03:31:05.120Z,90.00
2023-05-10T03:33:32.944Z,90.10
2023-05-10T03:35:59.820Z,90.10
2023-05-10T03:38:27.801Z,90.10
2023-05-10T03:40:56.879Z,90.10
2023-05-10T03:43:23.864Z,90.00
2023-05-10T03:45:50.855Z,90.10
2023-05-10T03:48:17.859Z,90.10
2023-05-10T03:50:44.801Z,90.10
2023-05-10T03:53:11.778Z,90.10
2023-05-10T03:55:38.734Z,90.10
2023-05-10T03:58:05.881Z,90.10
2023-05-10T04:00:33.633Z,90.10
2023-05-10T04:03:00.635Z,90.10
2023-05-10T04:05:27.679Z,90.10
2023-05-10T04:07:57.919Z,90.10
2023-05-10T04:10:25.224Z,90.10
2023-05-10T04:12:52.347Z,90.20
2023-05-10T04:15:19.314Z,90.20
2023-05-10T04:17:46.525Z,90.20
2023-05-10T04:20:13.869Z,90.20
2023-05-10T04:22:40.937Z,90.30
2023-05-10T04:25:08.651Z,90.30
2023-05-10T04:27:35.682Z,90.30
2023-05-10T04:30:03.092Z,90.30
2023-05-10T04:32:30.456Z,90.30
2023-05-10T04:34:57.384Z,90.30
2023-05-10T04:37:24.437Z,90.30
2023-05-10T04:39:51.377Z,90.30
2023-05-10T04:42:18.378Z,90.30
2023-05-10T04:44:45.293Z,90.40
2023-05-10T04:47:14.244Z,90.40
2023-05-10T04:49:41.398Z,90.40
2023-05-10T04:52:08.390Z,90.40
2023-05-10T04:54:35.809Z,90.40
2023-05-10T04:57:05.430Z,90.40
2023-05-10T04:59:32.500Z,90.40
2023-05-10T05:01:59.582Z,90.40
2023-05-10T05:04:26.841Z,90.40
2023-05-10T05:06:54.124Z,90.40
2023-05-10T05:09:21.173Z,90.40
2023-05-10T05:11:48.255Z,90.40
2023-05-10T05:14:15.224Z,90.40
2023-05-10T05:16:42.521Z,90.40
2023-05-10T05:19:09.562Z,90.40
2023-05-10T05:21:36.886Z,90.40
2023-05-10T05:35:26.719Z,90.40
2023-05-10T05:45:43.573Z,90.30
2023-05-10T05:48:13.744Z,90.10
2023-05-10T05:50:40.898Z,90.10
2023-05-10T05:53:07.805Z,90.10
2023-05-10T05:55:35.213Z,90.10
2023-05-10T05:58:02.219Z,90.00
2023-05-10T06:00:29.496Z,90.00
2023-05-10T06:02:59.545Z,90.00
2023-05-10T06:05:39.487Z,90.00
2023-05-10T06:08:11.782Z,90.00
2023-05-10T06:10:44.140Z,90.00
2023-05-10T06:13:11.402Z,89.90
2023-05-10T06:15:38.873Z,89.80
2023-05-10T06:18:06.122Z,89.70
2023-05-10T06:20:33.158Z,89.70
2023-05-10T06:23:00.281Z,89.50
2023-05-10T06:25:27.356Z,89.40
2023-05-10T06:27:58.454Z,89.30
2023-05-10T06:30:28.772Z,89.20
2023-05-10T06:32:56.167Z,89.10
2023-05-10T06:35:23.226Z,89.00
2023-05-10T06:37:50.703Z,88.80
2023-05-10T06:40:17.944Z,88.80
2023-05-10T06:42:46.221Z,88.70
2023-05-10T06:45:13.880Z,88.70
2023-05-10T06:47:41.545Z,88.50
2023-05-10T06:50:12.543Z,88.60
2023-05-10T06:52:39.690Z,88.50
2023-05-10T06:55:49.380Z,88.50
2023-05-10T06:58:36.409Z,88.40
2023-05-10T07:01:40.521Z,88.30
2023-05-10T07:03:57.822Z,88.10
2023-05-10T07:06:33.845Z,88.00
2023-05-10T07:09:18.743Z,88.00
2023-05-10T07:14:54.139Z,87.70
2023-05-10T07:17:21.166Z,87.60
2023-05-10T07:19:48.127Z,87.30
2023-05-10T07:22:15.669Z,87.20
2023-05-10T07:24:42.658Z,87.10
2023-05-10T07:27:10.140Z,86.90
2023-05-10T07:29:37.282Z,86.80
2023-05-10T07:32:04.299Z,86.60
2023-05-10T07:34:49.329Z,86.40
2023-05-10T07:37:16.538Z,86.20
2023-05-10T07:39:43.499Z,86.00
2023-05-10T07:42:16.797Z,85.80
2023-05-10T07:44:44.487Z,85.60
2023-05-10T07:47:16.689Z,85.50
2023-05-10T07:49:44.655Z,85.30
2023-05-10T07:52:12.224Z,85.00
2023-05-10T07:54:41.241Z,84.80
2023-05-10T07:57:08.321Z,84.60
2023-05-10T07:59:35.335Z,84.30
2023-05-10T08:02:02.288Z,84.20
2023-05-10T08:04:29.327Z,84.00
2023-05-10T08:06:56.354Z,83.70
2023-05-10T08:09:25.215Z,83.50
2023-05-10T08:11:52.529Z,83.30
2023-05-10T08:14:19.746Z,83.10
2023-05-10T08:16:46.711Z,82.90
2023-05-10T08:19:25.982Z,82.70
2023-05-10T08:22:21.874Z,83.00
2023-05-10T08:25:01.802Z,82.40
2023-05-10T08:27:28.905Z,82.30
2023-05-10T08:29:55.997Z,82.10
2023-05-10T08:32:22.957Z,81.80
2023-05-10T08:35:00.329Z,81.50
2023-05-10T08:37:27.348Z,81.10
2023-05-10T08:39:54.534Z,80.90
2023-05-10T08:42:21.884Z,80.40
2023-05-10T08:44:49.897Z,80.10
2023-05-10T08:47:17.665Z,79.80
2023-05-10T08:49:47.021Z,79.50
2023-05-10T08:52:13.916Z,79.40
2023-05-10T08:54:40.827Z,79.10
2023-05-10T08:57:07.749Z,79.40
2023-05-10T08:59:35.114Z,78.70
2023-05-10T09:02:02.111Z,78.50
2023-05-10T09:04:29.569Z,78.50
2023-05-10T09:06:56.692Z,78.30
2023-05-10T09:09:23.832Z,78.10
2023-05-10T09:11:50.683Z,78.10
2023-05-10T09:14:18.428Z,78.00
2023-05-10T09:16:45.464Z,77.90
2023-05-10T09:19:12.856Z,77.60
2023-05-10T09:21:39.978Z,77.50
2023-05-10T09:24:07.999Z,77.40
2023-05-10T09:26:37.633Z,77.30
2023-05-10T09:29:04.657Z,77.10
2023-05-10T09:31:48.207Z,76.90
2023-05-10T09:34:20.093Z,76.40
2023-05-10T09:36:57.874Z,76.40
2023-05-10T09:39:45.171Z,76.00
2023-05-10T09:42:12.303Z,76.00
2023-05-10T09:44:39.442Z,76.10
2023-05-10T09:47:06.373Z,76.00
2023-05-10T09:49:36.598Z,75.80
2023-05-10T09:52:09.566Z,75.80
2023-05-10T09:54:37.205Z,75.50
2023-05-10T09:57:04.649Z,75.50
2023-05-10T09:59:32.349Z,75.40
2023-05-10T10:02:04.429Z,75.10
2023-05-10T10:04:31.669Z,74.80
2023-05-10T10:07:03.030Z,74.50
2023-05-10T10:09:30.188Z,74.80
2023-05-10T10:11:57.949Z,74.20
2023-05-10T10:14:30.243Z,74.10
2023-05-10T10:17:07.744Z,73.90
2023-05-10T10:19:36.899Z,73.80
2023-05-10T10:22:04.346Z,73.40
2023-05-10T10:24:31.324Z,73.30
2023-05-10T10:27:06.234Z,73.20
2023-05-10T10:29:53.347Z,73.00
2023-05-10T10:32:22.564Z,72.90
2023-05-10T10:34:49.776Z,72.80
2023-05-10T10:37:19.204Z,72.50
2023-05-10T10:39:46.212Z,72.40
2023-05-10T10:42:13.369Z,72.40
2023-05-10T10:44:41.567Z,72.40
2023-05-10T10:47:34.188Z,72.30
2023-05-10T10:50:01.710Z,72.00
2023-05-10T10:52:31.077Z,71.70
2023-05-10T10:55:07.958Z,71.50
2023-05-10T10:58:08.243Z,71.50
2023-05-10T11:00:38.180Z,71.20
2023-05-10T11:03:07.716Z,71.10
2023-05-10T11:05:36.306Z,70.80
2023-05-10T11:08:48.829Z,70.60
2023-05-10T11:11:18.384Z,69.90
2023-05-10T11:13:48.394Z,70.00
2023-05-10T11:16:20.985Z,69.70
2023-05-10T11:19:02.795Z,69.40
2023-05-10T11:21:33.796Z,69.10
2023-05-10T11:24:01.591Z,69.10
2023-05-10T11:26:33.129Z,69.00
2023-05-10T11:29:01.837Z,69.00
2023-05-10T11:31:29.159Z,68.90
2023-05-10T11:33:57.640Z,68.90
2023-05-10T11:36:29.191Z,69.00
2023-05-10T11:38:56.836Z,68.70
2023-05-10T11:41:26.512Z,68.60
2023-05-10T11:43:54.131Z,68.20
2023-05-10T11:46:28.308Z,68.10
2023-05-10T11:49:02.589Z,67.90
2023-05-10T11:51:29.567Z,67.60
2023-05-10T11:53:57.536Z,67.30
2023-05-10T11:56:24.726Z,66.90
2023-05-10T11:58:56.943Z,66.50
2023-05-10T12:01:24.890Z,66.00
2023-05-10T12:03:52.509Z,65.70
2023-05-10T12:06:22.983Z,65.00
2023-05-10T12:08:53.698Z,64.60
2023-05-10T12:11:23.242Z,64.40
2023-05-10T12:13:51.233Z,64.30
2023-05-10T12:16:18.775Z,64.30
2023-05-10T12:18:46.588Z,64.30
2023-05-10T12:27:59.273Z,64.30
2023-05-10T12:30:35.218Z,64.60
2023-05-10T12:33:11.920Z,64.50
2023-05-10T12:35:58.022Z,64.30
2023-05-10T12:38:51.426Z,64.10
2023-05-10T12:41:30.085Z,63.90
2023-05-10T12:43:57.358Z,64.00
2023-05-10T12:46:53.873Z,63.90
2023-05-10T12:55:22.346Z,64.20
2023-05-10T13:05:00.508Z,63.90
2023-05-10T13:07:34.408Z,63.90
2023-05-10T13:10:11.002Z,63.70
2023-05-10T13:13:03.731Z,63.90
2023-05-10T13:15:51.918Z,63.80
2023-05-10T13:18:36.769Z,63.70
2023-05-10T13:21:15.819Z,63.50
2023-05-10T13:23:53.265Z,63.50
2023-05-10T13:26:23.004Z,63.60
2023-05-10T13:28:57.462Z,63.60
2023-05-10T13:31:31.995Z,63.40
2023-05-10T13:34:01.760Z,63.40
2023-05-10T13:36:28.674Z,63.40
2023-05-10T13:38:55.603Z,63.40
2023-05-10T13:41:22.659Z,63.30
2023-05-10T13:43:50.451Z,63.20
2023-05-10T13:46:17.512Z,63.20
2023-05-10T13:48:44.407Z,63.30
2023-05-10T13:51:11.238Z,63.70
2023-05-10T13:53:38.414Z,64.20
2023-05-10T13:56:05.464Z,64.90
2023-05-10T13:58:32.336Z,65.60
2023-05-10T14:00:59.335Z,66.30
2023-05-10T14:03:26.663Z,67.00
2023-05-10T14:05:53.924Z,67.80
2023-05-10T14:08:21.248Z,68.50
2023-05-10T14:10:48.147Z,69.10
2023-05-10T14:13:15.084Z,69.70
2023-05-10T14:15:42.147Z,70.30
2023-05-10T14:18:09.156Z,70.90
2023-05-10T14:20:36.542Z,71.30
2023-05-10T14:23:03.509Z,71.80
2023-05-10T14:25:30.532Z,72.20
2023-05-10T14:27:57.730Z,72.60
2023-05-10T14:30:24.570Z,72.80
2023-05-10T14:32:51.733Z,72.90
2023-05-10T14:35:19.907Z,72.90
2023-05-10T14:37:47.145Z,72.80
2023-05-10T14:40:15.143Z,72.80
2023-05-10T14:42:43.234Z,72.60
2023-05-10T14:45:11.008Z,72.50
2023-05-10T14:47:37.886Z,72.30
2023-05-10T14:50:05.035Z,72.00
2023-05-10T14:52:34.231Z,71.90
2023-05-10T14:55:02.539Z,71.90
2023-05-10T14:57:30.776Z,71.80
2023-05-10T14:59:58.086Z,71.90
2023-05-10T15:02:25.669Z,71.90
2023-05-10T15:04:53.052Z,71.80
2023-05-10T15:07:23.251Z,71.70
2023-05-10T15:09:51.317Z,71.90
2023-05-10T15:12:18.645Z,72.10
2023-05-10T15:14:45.697Z,72.40
2023-05-10T15:17:12.649Z,72.50
2023-05-10T15:19:39.557Z,73.30
2023-05-10T15:22:06.678Z,74.00
2023-05-10T15:24:33.550Z,74.80
2023-05-10T15:27:01.436Z,75.40
2023-05-10T15:29:28.447Z,75.90
2023-05-10T15:31:58.229Z,75.80
2023-05-10T15:34:25.155Z,75.80
2023-05-10T15:36:52.229Z,75.80
2023-05-10T15:39:19.168Z,75.90
2023-05-10T15:41:46.316Z,75.80
2023-05-10T15:44:13.284Z,76.00
2023-05-10T15:46:40.524Z,76.00
2023-05-10T15:49:07.653Z,76.10
2023-05-10T15:51:36.661Z,76.00
2023-05-10T15:54:08.197Z,75.80
2023-05-10T15:56:35.780Z,75.70
2023-05-10T15:59:02.768Z,75.80
2023-05-10T16:01:30.905Z,75.80
2023-05-10T16:04:00.420Z,75.80
2023-05-10T16:06:27.615Z,75.60
2023-05-10T16:08:54.938Z,75.50
2023-05-10T16:11:22.113Z,75.70
2023-05-10T16:13:49.050Z,75.80
2023-05-10T16:16:16.106Z,75.70
2023-05-10T16:18:43.281Z,75.70
2023-05-10T16:21:10.380Z,76.20
2023-05-10T16:23:37.497Z,75.70
2023-05-10T16:26:04.543Z,75.70
2023-05-10T16:28:32.461Z,76.20
2023-05-10T16:30:59.461Z,75.70
2023-05-10T16:33:31.361Z,76.20
2023-05-10T16:35:58.388Z,75.80
2023-05-10T16:38:28.560Z,76.00
2023-05-10T16:40:57.371Z,76.30
2023-05-10T16:43:26.112Z,76.40
2023-05-10T16:45:53.331Z,76.60
2023-05-10T16:48:20.337Z,76.80
2023-05-10T16:50:47.999Z,77.00
2023-05-10T16:53:14.981Z,77.30
2023-05-10T16:55:44.558Z,77.50
2023-05-10T16:58:17.540Z,77.70
2023-05-10T17:03:54.261Z,77.90
2023-05-10T17:06:21.615Z,77.90
2023-05-10T17:08:49.039Z,78.00
2023-05-10T17:11:16.036Z,78.00
2023-05-10T17:13:42.986Z,78.10
2023-05-10T17:16:11.077Z,78.30
2023-05-10T17:18:38.195Z,78.50
2023-05-10T17:21:05.189Z,78.70
2023-05-10T17:23:32.092Z,78.90
2023-05-10T17:26:01.484Z,79.20
2023-05-10T17:28:28.793Z,79.50
2023-05-10T17:30:57.473Z,79.70
2023-05-10T17:33:24.502Z,80.00
2023-05-10T17:35:51.819Z,80.20
2023-05-10T17:38:41.238Z,80.40
2023-05-10T17:41:11.305Z,80.60
2023-05-10T17:43:38.375Z,80.90
2023-05-10T17:46:05.662Z,81.10
2023-05-10T17:48:40.162Z,81.30
2023-05-10T17:51:07.160Z,81.50
2023-05-10T17:53:35.344Z,81.60
2023-05-10T17:56:02.397Z,81.70
2023-05-10T17:58:29.408Z,81.80
2023-05-10T18:00:57.801Z,82.00
2023-05-10T18:03:24.878Z,82.20
2023-05-10T18:05:51.879Z,82.20
2023-05-10T18:08:22.853Z,82.40
2023-05-10T18:10:50.989Z,82.50
2023-05-10T18:13:17.950Z,82.70
2023-05-10T18:15:45.057Z,82.80
2023-05-10T18:18:11.949Z,82.80
2023-05-10T18:20:39.018Z,82.90
2023-05-10T18:23:06.422Z,82.90
2023-05-10T18:25:33.583Z,83.00
2023-05-10T18:28:00.786Z,83.10
2023-05-10T18:30:27.947Z,83.00
2023-05-10T18:32:55.889Z,83.00
2023-05-10T18:35:23.257Z,83.00
2023-05-10T18:37:51.030Z,83.00
2023-05-10T18:40:18.110Z,83.00
2023-05-10T18:42:46.737Z,83.10
2023-05-10T18:45:13.988Z,83.20
2023-05-10T18:47:40.944Z,83.30
2023-05-10T18:50:08.395Z,83.40
2023-05-10T18:52:39.189Z,83.50
2023-05-10T18:55:07.015Z,83.70
2023-05-10T18:57:41.247Z,83.70
2023-05-10T19:00:10.540Z,83.80
2023-05-10T19:02:58.380Z,83.90
2023-05-10T19:05:30.459Z,84.20
2023-05-10T19:07:57.782Z,84.00
2023-05-10T19:13:05.808Z,84.40
2023-05-10T19:16:03.363Z,84.50
2023-05-10T19:18:20.623Z,84.60
2023-05-10T19:20:47.639Z,84.70
2023-05-10T19:23:16.060Z,84.80
2023-05-10T19:25:43.199Z,85.00
2023-05-10T19:28:13.505Z,85.10
2023-05-10T19:30:40.534Z,85.20
2023-05-10T19:33:07.689Z,85.30
2023-05-10T19:35:35.092Z,85.40
2023-05-10T19:38:02.225Z,85.40
2023-05-10T19:40:30.875Z,85.50
2023-05-10T19:42:58.122Z,85.50
2023-05-10T19:45:25.099Z,85.60
2023-05-10T19:47:52.196Z,85.70
2023-05-10T19:50:19.621Z,85.70
2023-05-10T19:52:46.758Z,85.80
2023-05-10T19:55:27.367Z,85.80
2023-05-10T19:57:55.561Z,86.00
2023-05-10T20:00:23.058Z,86.00
2023-05-10T20:02:50.081Z,86.00
2023-05-10T20:05:17.777Z,86.00
2023-05-10T20:07:45.163Z,86.10
2023-05-10T20:10:12.182Z,86.10
2023-05-10T20:12:39.334Z,86.20
2023-05-10T20:15:07.838Z,86.30
2023-05-10T20:17:36.007Z,86.40
2023-05-10T20:20:02.967Z,86.40
2023-05-10T20:22:29.875Z,86.50
2023-05-10T20:24:58.674Z,86.50
2023-05-10T20:27:25.850Z,86.50
2023-05-10T20:29:53.496Z,86.50
2023-05-10T20:32:20.447Z,86.40
2023-05-10T20:34:50.223Z,86.40
2023-05-10T20:37:17.917Z,86.40
2023-05-10T20:39:45.234Z,86.40
2023-05-10T20:42:21.230Z,86.40
2023-05-10T20:44:51.424Z,86.40
2023-05-10T20:47:18.408Z,86.40
2023-05-10T20:49:45.397Z,86.40
2023-05-10T20:52:12.538Z,86.40
2023-05-10T20:54:39.539Z,86.40
2023-05-10T20:57:06.790Z,86.40
2023-05-10T20:59:34.117Z,86.40
2023-05-10T21:02:01.392Z,86.40
2023-05-10T21:04:28.637Z,86.40
2023-05-10T21:06:57.029Z,86.90
2023-05-10T21:09:23.969Z,86.40
2023-05-10T21:11:51.166Z,86.60
2023-05-10T21:14:18.250Z,87.00
2023-05-10T21:16:45.323Z,86.50
2023-05-10T21:19:12.751Z,86.50
2023-05-10T21:21:39.917Z,86.60
2023-05-10T21:24:07.283Z,86.60
2023-05-10T21:26:34.239Z,86.50
2023-05-10T21:29:05.051Z,86.50
2023-05-10T21:31:32.252Z,86.40
2023-05-10T21:34:00.447Z,86.40
2023-05-10T21:36:30.415Z,86.50
2023-05-10T21:39:35.264Z,86.50
2023-05-10T21:42:22.681Z,86.50
2023-05-10T21:44:49.810Z,86.60
2023-05-10T21:47:17.552Z,86.70
2023-05-10T21:49:46.177Z,86.70
2023-05-10T21:52:13.391Z,86.80
2023-05-10T21:54:40.344Z,86.90
2023-05-10T21:57:10.959Z,86.90
2023-05-10T21:59:38.226Z,86.90
2023-05-10T22:02:05.192Z,87.10
2023-05-10T22:04:32.285Z,87.20
2023-05-10T22:06:59.476Z,87.20
2023-05-10T22:09:26.478Z,87.20
2023-05-10T22:11:53.386Z,87.30
2023-05-10T22:14:23.890Z,87.40
2023-05-10T22:16:50.922Z,87.40
2023-05-10T22:19:17.797Z,87.50
2023-05-10T22:21:44.716Z,87.60
2023-05-10T22:24:11.772Z,87.60
2023-05-10T22:26:38.876Z,87.70
2023-05-10T22:29:05.907Z,87.80
2023-05-10T22:31:32.957Z,88.30
2023-05-10T22:33:59.872Z,87.80
2023-05-10T22:36:27.352Z,87.90
2023-05-10T22:38:55.541Z,88.00
2023-05-10T22:41:22.981Z,87.90
2023-05-10T22:43:50.011Z,88.00
2023-05-10T22:46:17.046Z,88.00
2023-05-10T22:48:46.651Z,88.00
2023-05-10T22:51:13.616Z,88.00
2023-05-10T22:53:41.052Z,88.00
2023-05-10T22:56:07.992Z,88.00
2023-05-10T22:58:34.975Z,88.00
2023-05-10T23:01:01.957Z,87.90
2023-05-10T23:03:28.992Z,87.90
2023-05-10T23:05:56.037Z,87.80
2023-05-10T23:08:22.994Z,87.70
2023-05-10T23:10:49.944Z,87.60
2023-05-10T23:13:16.870Z,87.60
2023-05-10T23:15:43.897Z,87.50
2023-05-10T23:18:10.901Z,87.50
2023-05-10T23:20:38.065Z,87.50
2023-05-10T23:23:05.022Z,87.40
2023-05-10T23:25:32.012Z,87.50
2023-05-10T23:27:58.897Z,87.50
2023-05-10T23:30:25.834Z,87.50
2023-05-10T23:32:52.852Z,87.50
2023-05-10T23:35:19.887Z,87.50
2023-05-10T23:37:46.764Z,88.00
2023-05-10T23:40:14.478Z,87.50
2023-05-10T23:42:41.439Z,87.40
2023-05-10T23:45:11.052Z,87.40
2023-05-10T23:47:37.948Z,87.80
2023-05-10T23:50:07.629Z,87.20
2023-05-10T23:52:34.492Z,87.20
2023-05-10T23:55:01.455Z,87.20
2023-05-10T23:57:28.453Z,87.20
2023-05-10T23:59:58.351Z,87.20
